sensor_id;sensor_type;location;lat;lon;timestamp;P1;durP1;ratioP1;P2;durP2;ratioP2
54121;SDS011;40029;58.708;50.190;2023-04-03T00:00:57;122.32;;;50.58;;
54121;SDS011;40029;58.708;50.190;2023-04-03T00:03:29;124.78;;;50.55;;
54121;SDS011;40029;58.708;50.190;2023-04-03T00:06:00;120.13;;;48.80;;
54121;SDS011;40029;58.708;50.190;2023-04-03T00:08:31;120.63;;;47.83;;
54121;SDS011;40029;58.708;50.190;2023-04-03T00:11:03;105.72;;;45.95;;
54121;SDS011;40029;58.708;50.190;2023-04-03T00:13:34;111.25;;;45.72;;
54121;SDS011;40029;58.708;50.190;2023-04-03T00:16:07;104.75;;;46.60;;
54121;SDS011;40029;58.708;50.190;2023-04-03T00:18:39;130.20;;;48.83;;
54121;SDS011;40029;58.708;50.190;2023-04-03T00:21:12;117.03;;;47.92;;
54121;SDS011;40029;58.708;50.190;2023-04-03T00:23:44;116.70;;;47.15;;
54121;SDS011;40029;58.708;50.190;2023-04-03T00:26:15;125.03;;;48.08;;
54121;SDS011;40029;58.708;50.190;2023-04-03T00:28:46;124.70;;;47.05;;
54121;SDS011;40029;58.708;50.190;2023-04-03T00:31:17;133.93;;;50.97;;
54121;SDS011;40029;58.708;50.190;2023-04-03T00:33:48;119.72;;;50.47;;
54121;SDS011;40029;58.708;50.190;2023-04-03T00:36:20;129.05;;;49.55;;
54121;SDS011;40029;58.708;50.190;2023-04-03T00:38:51;115.70;;;47.47;;
54121;SDS011;40029;58.708;50.190;2023-04-03T00:41:22;137.40;;;55.95;;
54121;SDS011;40029;58.708;50.190;2023-04-03T00:43:53;129.35;;;50.03;;
54121;SDS011;40029;58.708;50.190;2023-04-03T00:46:24;122.20;;;50.30;;
54121;SDS011;40029;58.708;50.190;2023-04-03T00:48:55;125.65;;;51.40;;
54121;SDS011;40029;58.708;50.190;2023-04-03T00:51:27;125.70;;;50.15;;
54121;SDS011;40029;58.708;50.190;2023-04-03T00:53:59;116.00;;;46.75;;
54121;SDS011;40029;58.708;50.190;2023-04-03T00:56:33;111.38;;;45.13;;
54121;SDS011;40029;58.708;50.190;2023-04-03T01:01:53;113.45;;;47.00;;
54121;SDS011;40029;58.708;50.190;2023-04-03T01:04:26;117.90;;;48.63;;
54121;SDS011;40029;58.708;50.190;2023-04-03T01:07:33;122.93;;;50.27;;
54121;SDS011;40029;58.708;50.190;2023-04-03T01:10:00;111.03;;;46.67;;
54121;SDS011;40029;58.708;50.190;2023-04-03T01:12:35;108.72;;;44.97;;
54121;SDS011;40029;58.708;50.190;2023-04-03T01:15:10;112.53;;;46.50;;
54121;SDS011;40029;58.708;50.190;2023-04-03T01:17:51;110.38;;;48.83;;
54121;SDS011;40029;58.708;50.190;2023-04-03T01:20:36;118.65;;;47.83;;
54121;SDS011;40029;58.708;50.190;2023-04-03T01:23:17;108.07;;;47.35;;
54121;SDS011;40029;58.708;50.190;2023-04-03T01:26:16;111.47;;;46.30;;
54121;SDS011;40029;58.708;50.190;2023-04-03T01:28:47;106.50;;;45.97;;
54121;SDS011;40029;58.708;50.190;2023-04-03T01:31:20;112.50;;;48.78;;
54121;SDS011;40029;58.708;50.190;2023-04-03T01:33:57;113.63;;;47.38;;
54121;SDS011;40029;58.708;50.190;2023-04-03T01:36:29;117.35;;;46.45;;
54121;SDS011;40029;58.708;50.190;2023-04-03T01:39:02;99.60;;;44.33;;
54121;SDS011;40029;58.708;50.190;2023-04-03T01:41:33;99.15;;;42.72;;
54121;SDS011;40029;58.708;50.190;2023-04-03T01:44:13;109.80;;;44.20;;
54121;SDS011;40029;58.708;50.190;2023-04-03T01:46:44;94.10;;;42.50;;
54121;SDS011;40029;58.708;50.190;2023-04-03T01:49:16;99.40;;;46.50;;
54121;SDS011;40029;58.708;50.190;2023-04-03T01:51:46;100.05;;;43.58;;
54121;SDS011;40029;58.708;50.190;2023-04-03T01:54:19;101.00;;;44.72;;
54121;SDS011;40029;58.708;50.190;2023-04-03T01:56:50;102.93;;;42.97;;
54121;SDS011;40029;58.708;50.190;2023-04-03T01:59:22;90.10;;;40.63;;
54121;SDS011;40029;58.708;50.190;2023-04-03T02:01:54;89.10;;;39.67;;
54121;SDS011;40029;58.708;50.190;2023-04-03T02:04:26;92.70;;;39.22;;
54121;SDS011;40029;58.708;50.190;2023-04-03T02:06:57;70.38;;;31.80;;
54121;SDS011;40029;58.708;50.190;2023-04-03T02:09:29;91.78;;;36.65;;
54121;SDS011;40029;58.708;50.190;2023-04-03T02:12:00;90.22;;;38.95;;
54121;SDS011;40029;58.708;50.190;2023-04-03T02:14:31;92.10;;;42.45;;
54121;SDS011;40029;58.708;50.190;2023-04-03T02:17:02;90.20;;;42.83;;
54121;SDS011;40029;58.708;50.190;2023-04-03T02:19:35;85.00;;;40.67;;
54121;SDS011;40029;58.708;50.190;2023-04-03T02:22:06;82.28;;;38.47;;
54121;SDS011;40029;58.708;50.190;2023-04-03T02:24:38;97.50;;;39.30;;
54121;SDS011;40029;58.708;50.190;2023-04-03T02:27:10;93.30;;;41.85;;
54121;SDS011;40029;58.708;50.190;2023-04-03T02:29:41;97.80;;;40.13;;
54121;SDS011;40029;58.708;50.190;2023-04-03T02:32:12;88.55;;;38.97;;
54121;SDS011;40029;58.708;50.190;2023-04-03T02:34:44;93.80;;;38.90;;
54121;SDS011;40029;58.708;50.190;2023-04-03T02:37:17;96.20;;;39.58;;
54121;SDS011;40029;58.708;50.190;2023-04-03T02:39:50;87.38;;;38.50;;
54121;SDS011;40029;58.708;50.190;2023-04-03T02:42:22;93.90;;;39.22;;
54121;SDS011;40029;58.708;50.190;2023-04-03T02:44:53;87.75;;;38.08;;
54121;SDS011;40029;58.708;50.190;2023-04-03T02:47:24;84.20;;;38.03;;
54121;SDS011;40029;58.708;50.190;2023-04-03T02:49:55;93.45;;;38.83;;
54121;SDS011;40029;58.708;50.190;2023-04-03T02:52:26;136.98;;;47.45;;
54121;SDS011;40029;58.708;50.190;2023-04-03T02:55:00;168.18;;;56.58;;
54121;SDS011;40029;58.708;50.190;2023-04-03T02:57:31;125.75;;;48.30;;
54121;SDS011;40029;58.708;50.190;2023-04-03T03:00:03;118.15;;;45.20;;
54121;SDS011;40029;58.708;50.190;2023-04-03T03:02:34;71.05;;;29.83;;
54121;SDS011;40029;58.708;50.190;2023-04-03T03:05:06;60.63;;;28.15;;
54121;SDS011;40029;58.708;50.190;2023-04-03T03:07:37;46.78;;;23.58;;
54121;SDS011;40029;58.708;50.190;2023-04-03T03:10:09;45.00;;;22.42;;
54121;SDS011;40029;58.708;50.190;2023-04-03T03:12:40;48.92;;;21.13;;
54121;SDS011;40029;58.708;50.190;2023-04-03T03:15:12;32.58;;;17.17;;
54121;SDS011;40029;58.708;50.190;2023-04-03T03:17:43;26.73;;;14.80;;
54121;SDS011;40029;58.708;50.190;2023-04-03T03:20:14;22.48;;;13.48;;
54121;SDS011;40029;58.708;50.190;2023-04-03T03:22:46;21.17;;;10.93;;
54121;SDS011;40029;58.708;50.190;2023-04-03T03:25:17;15.60;;;9.90;;
54121;SDS011;40029;58.708;50.190;2023-04-03T03:27:48;23.70;;;9.43;;
54121;SDS011;40029;58.708;50.190;2023-04-03T03:30:19;20.17;;;10.23;;
54121;SDS011;40029;58.708;50.190;2023-04-03T03:32:51;15.63;;;9.05;;
54121;SDS011;40029;58.708;50.190;2023-04-03T03:35:23;15.73;;;9.27;;
54121;SDS011;40029;58.708;50.190;2023-04-03T03:37:54;20.08;;;9.40;;
54121;SDS011;40029;58.708;50.190;2023-04-03T03:40:26;23.52;;;10.55;;
54121;SDS011;40029;58.708;50.190;2023-04-03T03:42:57;18.25;;;10.15;;
54121;SDS011;40029;58.708;50.190;2023-04-03T03:45:28;23.92;;;11.43;;
54121;SDS011;40029;58.708;50.190;2023-04-03T03:48:01;36.60;;;18.38;;
54121;SDS011;40029;58.708;50.190;2023-04-03T03:50:33;61.83;;;27.02;;
54121;SDS011;40029;58.708;50.190;2023-04-03T03:53:05;95.63;;;44.10;;
54121;SDS011;40029;58.708;50.190;2023-04-03T03:55:36;94.60;;;39.33;;
54121;SDS011;40029;58.708;50.190;2023-04-03T03:58:07;72.95;;;33.67;;
54121;SDS011;40029;58.708;50.190;2023-04-03T04:00:39;66.50;;;32.85;;
54121;SDS011;40029;58.708;50.190;2023-04-03T04:03:11;76.00;;;36.75;;
54121;SDS011;40029;58.708;50.190;2023-04-03T04:05:42;78.30;;;39.35;;
54121;SDS011;40029;58.708;50.190;2023-04-03T04:08:14;105.82;;;49.15;;
54121;SDS011;40029;58.708;50.190;2023-04-03T04:10:45;101.38;;;46.55;;
54121;SDS011;40029;58.708;50.190;2023-04-03T04:13:18;106.38;;;47.80;;
54121;SDS011;40029;58.708;50.190;2023-04-03T04:15:50;105.15;;;47.28;;
54121;SDS011;40029;58.708;50.190;2023-04-03T04:18:21;107.78;;;49.95;;
54121;SDS011;40029;58.708;50.190;2023-04-03T04:20:53;128.75;;;54.05;;
54121;SDS011;40029;58.708;50.190;2023-04-03T04:23:25;98.45;;;41.60;;
54121;SDS011;40029;58.708;50.190;2023-04-03T04:25:57;81.50;;;34.35;;
54121;SDS011;40029;58.708;50.190;2023-04-03T04:28:28;56.60;;;25.23;;
54121;SDS011;40029;58.708;50.190;2023-04-03T04:31:02;53.42;;;24.00;;
54121;SDS011;40029;58.708;50.190;2023-04-03T04:33:33;43.30;;;24.08;;
54121;SDS011;40029;58.708;50.190;2023-04-03T04:36:07;43.40;;;22.27;;
54121;SDS011;40029;58.708;50.190;2023-04-03T04:38:39;42.55;;;21.30;;
54121;SDS011;40029;58.708;50.190;2023-04-03T04:41:11;35.05;;;19.10;;
54121;SDS011;40029;58.708;50.190;2023-04-03T04:43:42;34.33;;;18.42;;
54121;SDS011;40029;58.708;50.190;2023-04-03T04:46:14;31.85;;;15.43;;
54121;SDS011;40029;58.708;50.190;2023-04-03T04:48:51;30.45;;;15.70;;
54121;SDS011;40029;58.708;50.190;2023-04-03T04:51:24;54.50;;;19.98;;
54121;SDS011;40029;58.708;50.190;2023-04-03T04:53:56;49.42;;;19.25;;
54121;SDS011;40029;58.708;50.190;2023-04-03T04:56:28;47.35;;;21.27;;
54121;SDS011;40029;58.708;50.190;2023-04-03T04:59:00;45.63;;;19.23;;
54121;SDS011;40029;58.708;50.190;2023-04-03T05:01:32;40.75;;;16.63;;
54121;SDS011;40029;58.708;50.190;2023-04-03T05:04:12;26.95;;;12.52;;
54121;SDS011;40029;58.708;50.190;2023-04-03T05:06:44;35.85;;;16.35;;
54121;SDS011;40029;58.708;50.190;2023-04-03T05:09:20;91.28;;;39.85;;
54121;SDS011;40029;58.708;50.190;2023-04-03T05:11:52;148.95;;;65.07;;
54121;SDS011;40029;58.708;50.190;2023-04-03T05:14:26;96.50;;;45.63;;
54121;SDS011;40029;58.708;50.190;2023-04-03T05:17:00;92.65;;;45.15;;
54121;SDS011;40029;58.708;50.190;2023-04-03T05:19:34;63.90;;;32.05;;
54121;SDS011;40029;58.708;50.190;2023-04-03T05:22:06;62.55;;;29.00;;
54121;SDS011;40029;58.708;50.190;2023-04-03T05:24:37;40.75;;;21.20;;
54121;SDS011;40029;58.708;50.190;2023-04-03T05:27:09;29.50;;;14.85;;
54121;SDS011;40029;58.708;50.190;2023-04-03T05:29:43;29.90;;;13.43;;
54121;SDS011;40029;58.708;50.190;2023-04-03T05:32:18;21.52;;;11.70;;
54121;SDS011;40029;58.708;50.190;2023-04-03T05:34:53;22.00;;;10.60;;
54121;SDS011;40029;58.708;50.190;2023-04-03T05:37:24;14.43;;;8.77;;
54121;SDS011;40029;58.708;50.190;2023-04-03T05:39:57;18.80;;;9.20;;
54121;SDS011;40029;58.708;50.190;2023-04-03T05:42:28;17.85;;;10.07;;
54121;SDS011;40029;58.708;50.190;2023-04-03T05:45:00;14.48;;;8.80;;
54121;SDS011;40029;58.708;50.190;2023-04-03T05:47:31;17.20;;;9.50;;
54121;SDS011;40029;58.708;50.190;2023-04-03T05:50:03;20.08;;;8.85;;
54121;SDS011;40029;58.708;50.190;2023-04-03T05:52:36;16.50;;;9.02;;
54121;SDS011;40029;58.708;50.190;2023-04-03T05:55:09;17.00;;;7.97;;
54121;SDS011;40029;58.708;50.190;2023-04-03T05:57:41;16.58;;;7.95;;
54121;SDS011;40029;58.708;50.190;2023-04-03T06:00:13;12.73;;;8.07;;
54121;SDS011;40029;58.708;50.190;2023-04-03T06:02:50;14.07;;;8.45;;
54121;SDS011;40029;58.708;50.190;2023-04-03T06:05:26;17.33;;;10.25;;
54121;SDS011;40029;58.708;50.190;2023-04-03T06:07:58;18.33;;;9.60;;
54121;SDS011;40029;58.708;50.190;2023-04-03T06:10:29;12.27;;;7.72;;
54121;SDS011;40029;58.708;50.190;2023-04-03T06:13:01;15.60;;;7.97;;
54121;SDS011;40029;58.708;50.190;2023-04-03T06:15:33;15.82;;;8.18;;
54121;SDS011;40029;58.708;50.190;2023-04-03T06:18:05;14.82;;;8.45;;
54121;SDS011;40029;58.708;50.190;2023-04-03T06:20:38;20.02;;;7.68;;
54121;SDS011;40029;58.708;50.190;2023-04-03T06:23:10;21.77;;;8.57;;
54121;SDS011;40029;58.708;50.190;2023-04-03T06:25:41;18.73;;;8.75;;
54121;SDS011;40029;58.708;50.190;2023-04-03T06:28:12;16.67;;;8.77;;
54121;SDS011;40029;58.708;50.190;2023-04-03T06:30:43;20.70;;;10.48;;
54121;SDS011;40029;58.708;50.190;2023-04-03T06:33:14;14.55;;;8.98;;
54121;SDS011;40029;58.708;50.190;2023-04-03T06:35:45;20.52;;;10.25;;
54121;SDS011;40029;58.708;50.190;2023-04-03T06:38:16;28.42;;;12.45;;
54121;SDS011;40029;58.708;50.190;2023-04-03T06:40:49;18.77;;;8.60;;
54121;SDS011;40029;58.708;50.190;2023-04-03T06:43:20;19.88;;;9.15;;
54121;SDS011;40029;58.708;50.190;2023-04-03T06:45:51;22.30;;;9.20;;
54121;SDS011;40029;58.708;50.190;2023-04-03T06:48:22;17.80;;;8.32;;
54121;SDS011;40029;58.708;50.190;2023-04-03T06:50:53;13.35;;;7.25;;
54121;SDS011;40029;58.708;50.190;2023-04-03T06:53:24;14.30;;;7.20;;
54121;SDS011;40029;58.708;50.190;2023-04-03T06:55:55;13.70;;;7.28;;
54121;SDS011;40029;58.708;50.190;2023-04-03T06:58:26;18.52;;;8.07;;
54121;SDS011;40029;58.708;50.190;2023-04-03T07:00:57;13.80;;;7.95;;
54121;SDS011;40029;58.708;50.190;2023-04-03T07:03:28;29.75;;;12.88;;
54121;SDS011;40029;58.708;50.190;2023-04-03T07:05:59;14.68;;;6.35;;
54121;SDS011;40029;58.708;50.190;2023-04-03T07:08:30;13.13;;;7.03;;
54121;SDS011;40029;58.708;50.190;2023-04-03T07:11:01;14.70;;;6.20;;
54121;SDS011;40029;58.708;50.190;2023-04-03T07:13:33;8.80;;;5.32;;
54121;SDS011;40029;58.708;50.190;2023-04-03T07:16:05;9.68;;;5.30;;
54121;SDS011;40029;58.708;50.190;2023-04-03T07:18:36;10.05;;;5.55;;
54121;SDS011;40029;58.708;50.190;2023-04-03T07:21:08;11.00;;;4.60;;
54121;SDS011;40029;58.708;50.190;2023-04-03T07:23:39;12.90;;;4.95;;
54121;SDS011;40029;58.708;50.190;2023-04-03T07:26:10;12.52;;;6.13;;
54121;SDS011;40029;58.708;50.190;2023-04-03T07:28:41;13.85;;;6.10;;
54121;SDS011;40029;58.708;50.190;2023-04-03T07:31:12;16.65;;;5.35;;
54121;SDS011;40029;58.708;50.190;2023-04-03T07:33:47;9.80;;;5.30;;
54121;SDS011;40029;58.708;50.190;2023-04-03T07:36:19;12.38;;;5.63;;
54121;SDS011;40029;58.708;50.190;2023-04-03T07:38:51;13.65;;;7.22;;
54121;SDS011;40029;58.708;50.190;2023-04-03T07:41:22;18.08;;;7.10;;
54121;SDS011;40029;58.708;50.190;2023-04-03T07:43:53;10.43;;;6.53;;
54121;SDS011;40029;58.708;50.190;2023-04-03T07:46:25;11.77;;;6.20;;
54121;SDS011;40029;58.708;50.190;2023-04-03T07:48:56;8.95;;;4.70;;
54121;SDS011;40029;58.708;50.190;2023-04-03T07:51:27;11.27;;;6.90;;
54121;SDS011;40029;58.708;50.190;2023-04-03T07:53:59;16.90;;;7.47;;
54121;SDS011;40029;58.708;50.190;2023-04-03T07:56:31;12.85;;;6.00;;
54121;SDS011;40029;58.708;50.190;2023-04-03T07:59:02;9.52;;;4.90;;
54121;SDS011;40029;58.708;50.190;2023-04-03T08:01:33;9.05;;;4.93;;
54121;SDS011;40029;58.708;50.190;2023-04-03T08:04:04;9.23;;;4.75;;
54121;SDS011;40029;58.708;50.190;2023-04-03T08:06:37;10.80;;;5.25;;
54121;SDS011;40029;58.708;50.190;2023-04-03T08:09:08;11.52;;;6.35;;
54121;SDS011;40029;58.708;50.190;2023-04-03T08:11:39;10.85;;;5.68;;
54121;SDS011;40029;58.708;50.190;2023-04-03T08:14:10;10.70;;;5.60;;
54121;SDS011;40029;58.708;50.190;2023-04-03T08:16:47;10.02;;;5.15;;
54121;SDS011;40029;58.708;50.190;2023-04-03T08:19:19;9.65;;;4.80;;
54121;SDS011;40029;58.708;50.190;2023-04-03T08:21:50;16.25;;;7.60;;
54121;SDS011;40029;58.708;50.190;2023-04-03T08:24:21;18.67;;;7.90;;
54121;SDS011;40029;58.708;50.190;2023-04-03T08:26:52;19.67;;;9.68;;
54121;SDS011;40029;58.708;50.190;2023-04-03T08:29:24;18.40;;;8.48;;
54121;SDS011;40029;58.708;50.190;2023-04-03T08:31:55;21.33;;;8.55;;
54121;SDS011;40029;58.708;50.190;2023-04-03T08:34:26;24.17;;;10.20;;
54121;SDS011;40029;58.708;50.190;2023-04-03T08:36:57;21.23;;;8.75;;
54121;SDS011;40029;58.708;50.190;2023-04-03T08:39:28;20.42;;;9.55;;
54121;SDS011;40029;58.708;50.190;2023-04-03T08:42:00;13.90;;;7.45;;
54121;SDS011;40029;58.708;50.190;2023-04-03T08:48:06;17.85;;;7.13;;
54121;SDS011;40029;58.708;50.190;2023-04-03T08:50:51;8.77;;;4.90;;
54121;SDS011;40029;58.708;50.190;2023-04-03T08:53:28;9.23;;;4.30;;
54121;SDS011;40029;58.708;50.190;2023-04-03T08:56:04;13.13;;;5.60;;
54121;SDS011;40029;58.708;50.190;2023-04-03T09:01:26;15.70;;;5.90;;
54121;SDS011;40029;58.708;50.190;2023-04-03T09:04:09;10.57;;;5.10;;
54121;SDS011;40029;58.708;50.190;2023-04-03T09:06:43;11.95;;;4.60;;
54121;SDS011;40029;58.708;50.190;2023-04-03T09:09:39;10.80;;;5.45;;
54121;SDS011;40029;58.708;50.190;2023-04-03T09:12:19;6.97;;;4.55;;
54121;SDS011;40029;58.708;50.190;2023-04-03T09:20:19;12.68;;;5.47;;
54121;SDS011;40029;58.708;50.190;2023-04-03T09:23:01;7.43;;;4.68;;
54121;SDS011;40029;58.708;50.190;2023-04-03T09:28:18;13.77;;;7.47;;
54121;SDS011;40029;58.708;50.190;2023-04-03T09:30:49;15.35;;;6.65;;
54121;SDS011;40029;58.708;50.190;2023-04-03T09:33:20;10.55;;;4.30;;
54121;SDS011;40029;58.708;50.190;2023-04-03T09:35:52;16.60;;;7.20;;
54121;SDS011;40029;58.708;50.190;2023-04-03T09:38:23;11.48;;;5.47;;
54121;SDS011;40029;58.708;50.190;2023-04-03T09:43:37;10.85;;;5.63;;
54121;SDS011;40029;58.708;50.190;2023-04-03T09:46:28;19.88;;;4.38;;
54121;SDS011;40029;58.708;50.190;2023-04-03T09:49:04;7.80;;;3.97;;
54121;SDS011;40029;58.708;50.190;2023-04-03T09:51:36;8.38;;;4.57;;
54121;SDS011;40029;58.708;50.190;2023-04-03T09:57:05;8.85;;;3.67;;
54121;SDS011;40029;58.708;50.190;2023-04-03T09:59:44;12.63;;;4.70;;
54121;SDS011;40029;58.708;50.190;2023-04-03T10:04:54;8.95;;;4.53;;
54121;SDS011;40029;58.708;50.190;2023-04-03T10:07:43;8.02;;;3.60;;
54121;SDS011;40029;58.708;50.190;2023-04-03T10:12:45;8.32;;;4.45;;
54121;SDS011;40029;58.708;50.190;2023-04-03T10:15:17;10.98;;;4.45;;
54121;SDS011;40029;58.708;50.190;2023-04-03T10:18:00;15.20;;;5.53;;
54121;SDS011;40029;58.708;50.190;2023-04-03T10:20:37;13.50;;;5.35;;
54121;SDS011;40029;58.708;50.190;2023-04-03T10:39:54;17.17;;;7.63;;
54121;SDS011;40029;58.708;50.190;2023-04-03T10:42:35;22.10;;;5.88;;
54121;SDS011;40029;58.708;50.190;2023-04-03T10:45:21;13.77;;;5.75;;
54121;SDS011;40029;58.708;50.190;2023-04-03T10:50:43;10.30;;;5.80;;
54121;SDS011;40029;58.708;50.190;2023-04-03T11:01:50;19.33;;;4.72;;
54121;SDS011;40029;58.708;50.190;2023-04-03T11:04:25;21.08;;;4.93;;
54121;SDS011;40029;58.708;50.190;2023-04-03T11:07:02;12.18;;;4.30;;
54121;SDS011;40029;58.708;50.190;2023-04-03T11:09:34;8.40;;;3.88;;
54121;SDS011;40029;58.708;50.190;2023-04-03T11:12:23;8.07;;;4.47;;
54121;SDS011;40029;58.708;50.190;2023-04-03T11:14:55;7.15;;;3.65;;
54121;SDS011;40029;58.708;50.190;2023-04-03T11:17:33;9.93;;;3.85;;
54121;SDS011;40029;58.708;50.190;2023-04-03T11:25:34;11.73;;;4.47;;
54121;SDS011;40029;58.708;50.190;2023-04-03T11:28:12;7.25;;;3.92;;
54121;SDS011;40029;58.708;50.190;2023-04-03T11:36:45;11.07;;;3.95;;
54121;SDS011;40029;58.708;50.190;2023-04-03T11:39:24;23.73;;;3.00;;
54121;SDS011;40029;58.708;50.190;2023-04-03T11:42:16;11.95;;;3.05;;
54121;SDS011;40029;58.708;50.190;2023-04-03T11:47:58;8.30;;;3.10;;
54121;SDS011;40029;58.708;50.190;2023-04-03T11:58:21;12.63;;;4.10;;
54121;SDS011;40029;58.708;50.190;2023-04-03T12:01:05;11.15;;;3.33;;
54121;SDS011;40029;58.708;50.190;2023-04-03T12:16:26;7.22;;;3.17;;
54121;SDS011;40029;58.708;50.190;2023-04-03T12:26:51;15.05;;;6.70;;
54121;SDS011;40029;58.708;50.190;2023-04-03T12:29:34;13.73;;;6.38;;
54121;SDS011;40029;58.708;50.190;2023-04-03T12:40:50;13.80;;;4.90;;
54121;SDS011;40029;58.708;50.190;2023-04-03T12:46:18;7.45;;;3.20;;
54121;SDS011;40029;58.708;50.190;2023-04-03T12:48:52;6.93;;;2.67;;
54121;SDS011;40029;58.708;50.190;2023-04-03T12:56:49;18.13;;;5.60;;
54121;SDS011;40029;58.708;50.190;2023-04-03T12:59:22;12.07;;;4.47;;
54121;SDS011;40029;58.708;50.190;2023-04-03T13:01:58;18.30;;;7.43;;
54121;SDS011;40029;58.708;50.190;2023-04-03T13:04:31;21.88;;;8.65;;
54121;SDS011;40029;58.708;50.190;2023-04-03T13:07:02;26.40;;;9.13;;
54121;SDS011;40029;58.708;50.190;2023-04-03T13:09:34;21.35;;;9.05;;
54121;SDS011;40029;58.708;50.190;2023-04-03T13:12:12;19.30;;;8.43;;
54121;SDS011;40029;58.708;50.190;2023-04-03T13:14:56;23.20;;;6.78;;
54121;SDS011;40029;58.708;50.190;2023-04-03T13:17:29;25.70;;;8.52;;
54121;SDS011;40029;58.708;50.190;2023-04-03T13:20:10;27.98;;;9.85;;
54121;SDS011;40029;58.708;50.190;2023-04-03T13:22:56;16.08;;;7.40;;
54121;SDS011;40029;58.708;50.190;2023-04-03T13:25:34;10.82;;;4.03;;
54121;SDS011;40029;58.708;50.190;2023-04-03T13:28:09;21.00;;;4.30;;
54121;SDS011;40029;58.708;50.190;2023-04-03T13:30:57;18.17;;;3.35;;
54121;SDS011;40029;58.708;50.190;2023-04-03T13:33:55;5.75;;;3.42;;
54121;SDS011;40029;58.708;50.190;2023-04-03T13:36:39;15.75;;;4.63;;
54121;SDS011;40029;58.708;50.190;2023-04-03T13:41:49;12.45;;;3.42;;
54121;SDS011;40029;58.708;50.190;2023-04-03T13:46:55;11.93;;;3.90;;
54121;SDS011;40029;58.708;50.190;2023-04-03T13:49:32;15.97;;;4.17;;
54121;SDS011;40029;58.708;50.190;2023-04-03T13:54:58;14.57;;;5.47;;
54121;SDS011;40029;58.708;50.190;2023-04-03T13:57:53;5.68;;;2.70;;
54121;SDS011;40029;58.708;50.190;2023-04-03T14:00:40;9.68;;;2.80;;
54121;SDS011;40029;58.708;50.190;2023-04-03T14:03:31;12.65;;;5.07;;
54121;SDS011;40029;58.708;50.190;2023-04-03T14:06:13;14.18;;;2.33;;
54121;SDS011;40029;58.708;50.190;2023-04-03T14:08:47;8.18;;;2.20;;
54121;SDS011;40029;58.708;50.190;2023-04-03T14:11:24;11.32;;;2.25;;
54121;SDS011;40029;58.708;50.190;2023-04-03T14:14:00;11.95;;;1.88;;
54121;SDS011;40029;58.708;50.190;2023-04-03T14:16:37;16.10;;;2.58;;
54121;SDS011;40029;58.708;50.190;2023-04-03T14:19:16;9.15;;;2.47;;
54121;SDS011;40029;58.708;50.190;2023-04-03T14:21:50;17.75;;;5.07;;
54121;SDS011;40029;58.708;50.190;2023-04-03T14:24:23;11.35;;;4.78;;
54121;SDS011;40029;58.708;50.190;2023-04-03T14:26:54;19.73;;;6.97;;
54121;SDS011;40029;58.708;50.190;2023-04-03T14:29:26;10.70;;;4.53;;
54121;SDS011;40029;58.708;50.190;2023-04-03T14:31:57;17.05;;;5.85;;
54121;SDS011;40029;58.708;50.190;2023-04-03T14:34:28;15.77;;;7.28;;
54121;SDS011;40029;58.708;50.190;2023-04-03T14:36:59;28.15;;;13.40;;
54121;SDS011;40029;58.708;50.190;2023-04-03T14:39:31;20.30;;;10.68;;
54121;SDS011;40029;58.708;50.190;2023-04-03T14:42:02;23.17;;;11.02;;
54121;SDS011;40029;58.708;50.190;2023-04-03T14:44:33;13.02;;;5.75;;
54121;SDS011;40029;58.708;50.190;2023-04-03T14:47:04;12.05;;;5.95;;
54121;SDS011;40029;58.708;50.190;2023-04-03T14:49:35;16.30;;;4.90;;
54121;SDS011;40029;58.708;50.190;2023-04-03T14:52:09;13.75;;;3.90;;
54121;SDS011;40029;58.708;50.190;2023-04-03T14:54:52;8.88;;;3.67;;
54121;SDS011;40029;58.708;50.190;2023-04-03T14:57:25;14.48;;;4.20;;
54121;SDS011;40029;58.708;50.190;2023-04-03T14:59:57;6.30;;;3.60;;
54121;SDS011;40029;58.708;50.190;2023-04-03T15:02:30;5.85;;;3.40;;
54121;SDS011;40029;58.708;50.190;2023-04-03T15:05:04;6.00;;;2.93;;
54121;SDS011;40029;58.708;50.190;2023-04-03T15:07:38;7.47;;;2.88;;
54121;SDS011;40029;58.708;50.190;2023-04-03T15:10:15;6.45;;;2.92;;
54121;SDS011;40029;58.708;50.190;2023-04-03T15:15:20;12.77;;;3.63;;
54121;SDS011;40029;58.708;50.190;2023-04-03T15:17:53;14.27;;;3.47;;
54121;SDS011;40029;58.708;50.190;2023-04-03T15:20:28;10.82;;;4.38;;
54121;SDS011;40029;58.708;50.190;2023-04-03T15:23:01;11.55;;;6.20;;
54121;SDS011;40029;58.708;50.190;2023-04-03T15:25:32;10.60;;;7.32;;
54121;SDS011;40029;58.708;50.190;2023-04-03T15:28:03;19.20;;;11.63;;
54121;SDS011;40029;58.708;50.190;2023-04-03T15:30:35;29.58;;;11.23;;
54121;SDS011;40029;58.708;50.190;2023-04-03T15:33:08;22.05;;;11.93;;
54121;SDS011;40029;58.708;50.190;2023-04-03T15:35:39;18.08;;;11.40;;
54121;SDS011;40029;58.708;50.190;2023-04-03T15:38:11;22.52;;;13.50;;
54121;SDS011;40029;58.708;50.190;2023-04-03T15:40:42;21.63;;;11.60;;
54121;SDS011;40029;58.708;50.190;2023-04-03T15:43:14;20.23;;;11.23;;
54121;SDS011;40029;58.708;50.190;2023-04-03T15:45:45;23.00;;;11.48;;
54121;SDS011;40029;58.708;50.190;2023-04-03T15:48:17;18.58;;;9.27;;
54121;SDS011;40029;58.708;50.190;2023-04-03T15:50:48;11.20;;;6.88;;
54121;SDS011;40029;58.708;50.190;2023-04-03T15:53:20;14.68;;;5.80;;
54121;SDS011;40029;58.708;50.190;2023-04-03T15:55:51;12.35;;;5.55;;
54121;SDS011;40029;58.708;50.190;2023-04-03T15:58:22;9.70;;;5.38;;
54121;SDS011;40029;58.708;50.190;2023-04-03T16:00:53;13.40;;;5.22;;
54121;SDS011;40029;58.708;50.190;2023-04-03T16:03:24;8.27;;;4.22;;
54121;SDS011;40029;58.708;50.190;2023-04-03T16:05:55;8.43;;;4.20;;
54121;SDS011;40029;58.708;50.190;2023-04-03T16:08:27;9.50;;;4.00;;
54121;SDS011;40029;58.708;50.190;2023-04-03T16:10:58;7.30;;;4.80;;
54121;SDS011;40029;58.708;50.190;2023-04-03T16:13:29;6.75;;;3.45;;
54121;SDS011;40029;58.708;50.190;2023-04-03T16:16:01;8.35;;;4.05;;
54121;SDS011;40029;58.708;50.190;2023-04-03T16:18:32;8.00;;;3.92;;
54121;SDS011;40029;58.708;50.190;2023-04-03T16:21:06;7.85;;;4.70;;
54121;SDS011;40029;58.708;50.190;2023-04-03T16:23:38;11.48;;;4.72;;
54121;SDS011;40029;58.708;50.190;2023-04-03T16:26:09;9.15;;;3.92;;
54121;SDS011;40029;58.708;50.190;2023-04-03T16:28:41;7.32;;;4.00;;
54121;SDS011;40029;58.708;50.190;2023-04-03T16:31:12;9.98;;;4.72;;
54121;SDS011;40029;58.708;50.190;2023-04-03T16:33:43;12.65;;;4.85;;
54121;SDS011;40029;58.708;50.190;2023-04-03T16:36:14;8.38;;;4.38;;
54121;SDS011;40029;58.708;50.190;2023-04-03T16:38:45;13.70;;;4.03;;
54121;SDS011;40029;58.708;50.190;2023-04-03T16:41:16;11.20;;;4.35;;
54121;SDS011;40029;58.708;50.190;2023-04-03T16:43:47;9.48;;;4.00;;
54121;SDS011;40029;58.708;50.190;2023-04-03T16:46:18;11.10;;;5.15;;
54121;SDS011;40029;58.708;50.190;2023-04-03T16:48:49;12.55;;;5.47;;
54121;SDS011;40029;58.708;50.190;2023-04-03T16:51:20;18.55;;;5.97;;
54121;SDS011;40029;58.708;50.190;2023-04-03T16:53:51;13.70;;;6.78;;
54121;SDS011;40029;58.708;50.190;2023-04-03T16:56:22;16.77;;;6.32;;
54121;SDS011;40029;58.708;50.190;2023-04-03T16:58:53;15.57;;;6.47;;